CCD2 weather

Public forecast

Using degrees Celsius for public forecast. Weather courtesy of forecast.io.

Closest aviation weather report (METAR) to Springdale Airport

Closest report is Deer Lake Airport, 50.1 nm (92.8 km) WSW. Retrieved 2020/08/15 11:00 UTC (1 minute ago):

CYDF 151100Z VRB02KT 15SM VCFG SKC 07/06 A3030 RMK SLP261

Closest aviation forecast (TAF) to Springdale Airport

Forecast is more than 12 hours old.

Closest forecast is Deer Lake Airport, 50.1 nm (92.8 km) WSW. Retrieved 2020/08/14 20:00 UTC (15 hours ago):

TAF CYDF 141938Z 1420/1424 02010KT P6SM BKN020 OVC030 TEMPO 1420/1424 SCT020 OVC030 BECMG 1422/1424 05007KT RMK NXT FCST WILL BE ISSUED AT 151045Z